Sandy Hook, Connecticut
Current Conditions -  °F | °C
As of 5:35 AM on Friday 31 Oct 2014 (Local Time) from KOXC Reporting Station
Overcast Overcast  
Wind Chill: 35°   Ceiling: 4500
Heat Index: 41°   Visibility: 10mi
Dew Point: 27°   Wind: 9mph
Humidity: 57%   Direction: 30°NNE
Pressure: 30.02"   Gusts: NA
Location:  41.42°N, 73.28°W
Report Text: KOXC 310935Z 03008KT 10SM OVC045 05/M03 A3002 RMK AO1
Loading
Personal Weather Stations






























Interactive Weather Map New forecast layout! Learn more

10-Day Weather Forecast

Advertisements
Track Severe Weather on mobile